Time;durP1;ratioP1;P1;durP2;ratioP2;P2;SDS_P1;SDS_P2;PMS_P1;PMS_P2;Temp;Humidity;BMP_temperature;BMP_pressure;BME280_temperature;BME280_humidity;BME280_pressure;Samples;Min_cycle;Max_cycle;Signal;HPM_P1;HPM_P2
2022/06/27 00:01:40;;;;;;;3.22;1.90;;;21.50;98.00;;;;;;5021341;28;20454;-76
2022/06/27 00:04:05;;;;;;;4.53;2.00;;;21.50;98.30;;;;;;5031852;28;20057;-77
2022/06/27 00:06:31;;;;;;;3.58;1.83;;;21.50;98.30;;;;;;5020113;28;20041;-77
2022/06/27 00:08:57;;;;;;;3.97;2.38;;;21.50;98.50;;;;;;5029641;28;20520;-77
2022/06/27 00:11:23;;;;;;;3.95;2.13;;;21.40;98.60;;;;;;5021950;28;20116;-77
2022/06/27 00:13:49;;;;;;;3.30;2.40;;;21.40;98.60;;;;;;5043450;28;20457;-77
2022/06/27 00:16:17;;;;;;;3.22;2.17;;;21.40;98.60;;;;;;5039642;28;20033;-77
2022/06/27 00:18:43;;;;;;;3.15;2.20;;;21.40;98.80;;;;;;5031553;28;20040;-77
2022/06/27 00:21:09;;;;;;;2.88;2.17;;;21.40;99.00;;;;;;5040765;28;20484;-77
2022/06/27 00:23:35;;;;;;;2.20;2.00;;;21.40;99.00;;;;;;5028950;28;20038;-78
2022/06/27 00:26:01;;;;;;;3.00;2.20;;;21.40;99.00;;;;;;5018732;28;20037;-78
2022/06/27 00:28:27;;;;;;;3.60;2.40;;;21.40;99.00;;;;;;5038516;28;20075;-78
2022/06/27 00:30:52;;;;;;;3.17;2.22;;;21.40;99.10;;;;;;5036167;28;20057;-78
2022/06/27 00:33:18;;;;;;;4.65;2.15;;;21.40;99.20;;;;;;5013374;28;20029;-78
2022/06/27 00:35:44;;;;;;;3.80;2.40;;;21.40;99.30;;;;;;5034846;28;20032;-78
2022/06/27 00:38:10;;;;;;;4.03;2.60;;;21.30;99.60;;;;;;5007512;28;20522;-77
2022/06/27 00:40:36;;;;;;;2.55;2.20;;;21.30;99.60;;;;;;5003937;28;20022;-77
2022/06/27 00:43:02;;;;;;;3.83;2.35;;;21.30;99.90;;;;;;5031803;28;20036;-77
2022/06/27 00:45:27;;;;;;;4.00;2.22;;;21.20;99.90;;;;;;5029538;28;20409;-78
2022/06/27 00:47:54;;;;;;;3.10;2.42;;;21.20;99.90;;;;;;5027107;28;20045;-78
2022/06/27 00:50:20;;;;;;;5.30;2.40;;;21.20;99.90;;;;;;5034979;28;20022;-78
2022/06/27 00:52:46;;;;;;;3.47;2.50;;;21.20;99.90;;;;;;5024230;28;20033;-76
2022/06/27 00:55:12;;;;;;;3.13;2.40;;;21.20;99.90;;;;;;5033906;28;20079;-77
2022/06/27 00:57:37;;;;;;;4.60;2.47;;;21.10;99.90;;;;;;5034627;28;20413;-78
2022/06/27 01:00:05;;;;;;;5.07;2.40;;;21.00;99.90;;;;;;5024436;28;20018;-78
2022/06/27 01:02:31;;;;;;;3.60;2.20;;;21.10;99.90;;;;;;5019464;28;20036;-78
2022/06/27 01:04:57;;;;;;;3.50;2.20;;;21.10;99.90;;;;;;5030378;28;20460;-77
2022/06/27 01:07:22;;;;;;;4.60;2.35;;;21.10;99.90;;;;;;5019489;28;20032;-77
2022/06/27 01:09:48;;;;;;;4.55;2.60;;;21.10;99.90;;;;;;5035231;28;20028;-78
2022/06/27 01:12:14;;;;;;;5.53;2.75;;;21.10;99.90;;;;;;5033157;28;20029;-77
2022/06/27 01:14:40;;;;;;;5.43;2.63;;;21.10;99.90;;;;;;5035838;28;20033;-77
2022/06/27 01:17:06;;;;;;;4.82;2.55;;;21.10;99.90;;;;;;5028191;28;20030;-77
2022/06/27 01:19:32;;;;;;;3.00;2.38;;;21.10;99.90;;;;;;5030556;28;20063;-78
2022/06/27 01:21:58;;;;;;;3.03;2.45;;;21.10;99.90;;;;;;5034444;28;20025;-78
2022/06/27 01:24:25;;;;;;;3.42;2.50;;;21.10;99.90;;;;;;5032189;28;20029;-77
2022/06/27 01:26:52;;;;;;;4.57;2.20;;;21.10;99.90;;;;;;5034079;28;20131;-78
2022/06/27 01:29:19;;;;;;;4.22;2.30;;;21.10;99.90;;;;;;5035109;28;20029;-78
2022/06/27 01:31:45;;;;;;;3.75;2.38;;;21.10;99.90;;;;;;5013190;28;20116;-78
2022/06/27 01:34:12;;;;;;;5.25;2.75;;;21.10;99.90;;;;;;5027993;28;20616;-77
2022/06/27 01:36:44;;;;;;;2.78;2.38;;;21.10;99.90;;;;;;5033229;28;20525;-78
2022/06/27 01:39:15;;;;;;;3.75;2.33;;;21.10;99.90;;;;;;5027390;28;20056;-78
2022/06/27 01:41:47;;;;;;;2.75;2.45;;;21.10;99.90;;;;;;5029203;28;20036;-78
2022/06/27 01:44:23;;;;;;;4.05;2.35;;;21.20;99.90;;;;;;5027455;28;20037;-77
2022/06/27 01:46:50;;;;;;;3.85;2.63;;;21.20;99.90;;;;;;5028465;28;20026;-78
2022/06/27 01:49:17;;;;;;;4.88;2.80;;;21.20;99.90;;;;;;5025077;28;20060;-78
2022/06/27 01:51:46;;;;;;;3.70;3.00;;;21.20;99.90;;;;;;5016799;28;20094;-76
2022/06/27 01:54:13;;;;;;;3.42;2.60;;;21.10;99.90;;;;;;5033259;28;20165;-77
2022/06/27 01:56:41;;;;;;;3.80;2.72;;;21.10;99.90;;;;;;5030656;28;20041;-77
2022/06/27 01:59:07;;;;;;;4.60;2.47;;;21.00;99.90;;;;;;5034045;28;20021;-77
2022/06/27 02:01:33;;;;;;;4.25;2.50;;;21.00;99.90;;;;;;5030169;28;20040;-78
2022/06/27 02:04:01;;;;;;;3.47;2.38;;;21.00;99.90;;;;;;5032440;28;20502;-78
2022/06/27 02:06:29;;;;;;;3.25;2.30;;;21.00;99.90;;;;;;5011682;28;20053;-78
2022/06/27 02:08:56;;;;;;;4.05;2.60;;;20.90;99.90;;;;;;5028404;28;20523;-77
2022/06/27 02:11:22;;;;;;;3.17;2.50;;;20.90;99.90;;;;;;5021338;28;20038;-76
2022/06/27 02:13:47;;;;;;;4.05;2.33;;;20.80;99.90;;;;;;5021577;28;20037;-78
2022/06/27 02:16:16;;;;;;;3.67;2.55;;;20.70;99.90;;;;;;5021717;28;20021;-76
2022/06/27 02:18:43;;;;;;;5.15;2.60;;;20.70;99.90;;;;;;5030085;28;20029;-76
2022/06/27 02:21:14;;;;;;;4.70;2.40;;;20.70;99.90;;;;;;5020264;28;20018;-77
2022/06/27 02:23:41;;;;;;;4.03;2.65;;;20.60;99.90;;;;;;5031288;28;20033;-77
2022/06/27 02:26:08;;;;;;;5.28;2.63;;;20.60;99.90;;;;;;5010527;28;20065;-77
2022/06/27 02:28:35;;;;;;;6.97;2.60;;;20.50;99.90;;;;;;5020585;28;20520;-77
2022/06/27 02:31:01;;;;;;;4.85;2.83;;;20.50;99.90;;;;;;5030664;28;20029;-77
2022/06/27 02:33:38;;;;;;;5.75;2.88;;;20.40;99.90;;;;;;5020988;28;20037;-77
2022/06/27 02:36:05;;;;;;;4.65;2.78;;;20.40;99.90;;;;;;5007059;28;20018;-77
2022/06/27 02:38:32;;;;;;;5.47;2.60;;;20.40;99.90;;;;;;5028076;28;20551;-77
2022/06/27 02:41:00;;;;;;;4.38;2.58;;;20.40;99.90;;;;;;5007354;28;20040;-76
2022/06/27 02:43:32;;;;;;;5.00;2.53;;;20.40;99.90;;;;;;5024151;28;20498;-77
2022/06/27 02:45:58;;;;;;;3.25;2.30;;;20.40;99.90;;;;;;5019859;28;20129;-76
2022/06/27 02:48:25;;;;;;;4.72;2.40;;;20.30;99.90;;;;;;5009985;28;20029;-76
2022/06/27 02:50:56;;;;;;;6.03;2.67;;;20.20;99.90;;;;;;5045274;28;20353;-77
2022/06/27 02:53:29;;;;;;;5.07;2.70;;;20.20;99.90;;;;;;5030244;28;20021;-77
2022/06/27 02:55:59;;;;;;;8.88;3.03;;;20.10;99.90;;;;;;5026571;28;20267;-76
2022/06/27 02:59:10;;;;;;;4.30;2.40;;;20.10;99.90;;;;;;5021279;28;20080;-76
2022/06/27 03:01:38;;;;;;;5.88;2.83;;;20.00;99.90;;;;;;4984422;28;20029;-77
2022/06/27 03:04:04;;;;;;;5.78;2.28;;;19.90;99.90;;;;;;5013298;28;20069;-76
2022/06/27 03:06:30;;;;;;;3.28;2.05;;;19.90;99.90;;;;;;5018783;28;20068;-77
2022/06/27 03:08:56;;;;;;;3.90;2.38;;;19.90;99.90;;;;;;5028101;28;20058;-77
2022/06/27 03:11:23;;;;;;;4.47;2.60;;;19.80;99.90;;;;;;5020574;28;20449;-77
2022/06/27 03:13:50;;;;;;;4.65;2.40;;;19.70;99.90;;;;;;5018603;28;20033;-77
2022/06/27 03:16:17;;;;;;;6.97;2.25;;;19.70;99.90;;;;;;5026853;28;20034;-76
2022/06/27 03:18:44;;;;;;;4.32;2.42;;;19.60;99.90;;;;;;5023011;28;20049;-77
2022/06/27 03:21:11;;;;;;;3.80;1.90;;;19.60;99.90;;;;;;5018499;28;20018;-76
2022/06/27 03:23:40;;;;;;;7.47;2.40;;;19.60;99.90;;;;;;5024664;28;20032;-77
2022/06/27 03:26:06;;;;;;;3.30;2.10;;;19.60;99.90;;;;;;5015755;28;20475;-77
2022/06/27 03:28:32;;;;;;;4.00;2.13;;;19.50;99.90;;;;;;5026011;28;20041;-77
2022/06/27 03:30:57;;;;;;;11.68;2.50;;;19.50;99.90;;;;;;5030152;28;20082;-77
2022/06/27 03:33:23;;;;;;;4.80;2.30;;;19.50;99.90;;;;;;5033366;28;20029;-77
2022/06/27 03:35:49;;;;;;;4.20;2.30;;;19.40;99.90;;;;;;5023636;28;20225;-77
2022/06/27 03:38:15;;;;;;;7.22;2.30;;;19.40;99.90;;;;;;5024456;28;20063;-78
2022/06/27 03:40:41;;;;;;;6.20;2.20;;;19.30;99.90;;;;;;5028019;28;20036;-77
2022/06/27 03:43:06;;;;;;;3.58;2.20;;;19.30;99.90;;;;;;5010056;28;20034;-77
2022/06/27 03:45:32;;;;;;;4.47;2.38;;;19.20;99.90;;;;;;5023087;28;20075;-77
2022/06/27 03:48:02;;;;;;;5.00;2.42;;;19.10;99.90;;;;;;5036734;28;20038;-77
2022/06/27 03:50:28;;;;;;;6.88;2.70;;;19.00;99.90;;;;;;5023169;28;20045;-77
2022/06/27 03:52:55;;;;;;;3.22;2.10;;;18.90;99.90;;;;;;5022675;28;20562;-77
2022/06/27 03:55:22;;;;;;;3.67;2.45;;;18.80;99.90;;;;;;5029226;28;20148;-76
2022/06/27 03:57:59;;;;;;;4.45;2.33;;;18.70;99.90;;;;;;5018990;28;20243;-76
2022/06/27 04:00:27;;;;;;;4.30;2.50;;;18.60;99.90;;;;;;5021967;28;20037;-76
2022/06/27 04:02:53;;;;;;;6.32;2.70;;;18.60;99.90;;;;;;5015204;28;20512;-76
2022/06/27 04:05:19;;;;;;;6.93;3.10;;;18.40;99.90;;;;;;5015935;28;20025;-76
2022/06/27 04:07:45;;;;;;;5.10;3.10;;;18.40;99.90;;;;;;5009691;28;20026;-76
2022/06/27 04:10:12;;;;;;;5.38;2.75;;;18.20;99.90;;;;;;5025268;28;20107;-76
2022/06/27 04:12:43;;;;;;;5.07;2.90;;;18.20;99.90;;;;;;5009030;28;20037;-77
2022/06/27 04:15:10;;;;;;;5.40;3.08;;;18.10;99.90;;;;;;5012716;28;20029;-77
2022/06/27 04:17:37;;;;;;;5.10;2.78;;;18.20;99.90;;;;;;5023453;28;20060;-77
2022/06/27 04:20:04;;;;;;;5.53;2.95;;;18.20;99.90;;;;;;4999682;28;20439;-77
2022/06/27 04:22:29;;;;;;;7.18;3.25;;;18.20;99.90;;;;;;5022855;28;20025;-78
2022/06/27 04:24:57;;;;;;;5.65;3.38;;;18.20;99.90;;;;;;5032002;28;20397;-77
2022/06/27 04:27:22;;;;;;;6.97;3.60;;;18.20;99.90;;;;;;5031212;28;20029;-78
2022/06/27 04:29:48;;;;;;;5.65;3.03;;;18.20;99.90;;;;;;5031379;28;20436;-78
2022/06/27 04:32:18;;;;;;;9.48;3.72;;;18.20;99.90;;;;;;5025523;28;21795;-77
2022/06/27 04:34:44;;;;;;;8.57;4.18;;;18.20;99.90;;;;;;5009997;28;20036;-77
2022/06/27 04:37:11;;;;;;;5.43;3.30;;;18.30;99.90;;;;;;5009448;28;20030;-77
2022/06/27 04:39:38;;;;;;;6.15;3.38;;;18.30;99.90;;;;;;5030698;28;20033;-78
2022/06/27 04:42:06;;;;;;;6.72;3.33;;;18.30;99.90;;;;;;5004415;28;20026;-78
2022/06/27 04:44:33;;;;;;;8.50;4.47;;;18.30;99.90;;;;;;5021822;28;20049;-76
2022/06/27 04:46:59;;;;;;;6.68;4.07;;;18.30;99.90;;;;;;5030731;28;20022;-77
2022/06/27 04:49:25;;;;;;;5.60;4.07;;;18.30;99.90;;;;;;5022760;28;20168;-78
2022/06/27 04:51:51;;;;;;;5.85;4.00;;;18.30;99.90;;;;;;5032430;28;20036;-77
2022/06/27 04:54:18;;;;;;;5.43;3.58;;;18.30;99.90;;;;;;5012152;28;20108;-78
2022/06/27 04:56:44;;;;;;;7.78;3.85;;;18.30;99.90;;;;;;5015192;28;20065;-76
2022/06/27 04:59:11;;;;;;;6.25;3.58;;;18.30;99.90;;;;;;5016186;28;20022;-75
2022/06/27 05:01:38;;;;;;;5.55;3.75;;;18.30;99.90;;;;;;5009396;28;20482;-76
2022/06/27 05:04:04;;;;;;;9.20;4.18;;;18.40;99.90;;;;;;5022791;28;20116;-75
2022/06/27 05:06:30;;;;;;;5.20;3.55;;;18.40;99.90;;;;;;5008376;28;20698;-76
2022/06/27 05:08:56;;;;;;;8.60;3.78;;;18.30;99.90;;;;;;5011183;28;20501;-75
2022/06/27 05:11:22;;;;;;;6.18;3.50;;;18.30;99.90;;;;;;4995710;28;20033;-76
2022/06/27 05:13:48;;;;;;;6.40;4.15;;;18.40;99.90;;;;;;5014423;28;20037;-77
2022/06/27 05:16:16;;;;;;;5.55;3.67;;;18.40;99.90;;;;;;4990326;28;20316;-76
2022/06/27 05:18:42;;;;;;;6.43;3.50;;;18.50;99.90;;;;;;5015034;28;20117;-76
2022/06/27 05:21:09;;;;;;;4.65;3.47;;;18.50;99.90;;;;;;5014945;28;20037;-74
2022/06/27 05:23:37;;;;;;;6.38;3.38;;;18.50;99.90;;;;;;4999269;28;20037;-74
2022/06/27 05:26:04;;;;;;;7.25;3.47;;;18.60;99.90;;;;;;5010617;28;20034;-73
2022/06/27 05:28:29;;;;;;;4.30;3.58;;;18.60;99.90;;;;;;5019350;28;20061;-74
2022/06/27 05:30:55;;;;;;;7.88;4.18;;;18.60;99.90;;;;;;5017964;28;20026;-75
2022/06/27 05:33:22;;;;;;;11.43;4.50;;;18.70;99.90;;;;;;5033669;28;20029;-77
2022/06/27 05:35:49;;;;;;;5.68;4.38;;;18.80;99.90;;;;;;5031345;28;20051;-77
2022/06/27 05:38:15;;;;;;;6.68;4.47;;;18.80;99.90;;;;;;5023275;28;20510;-76
2022/06/27 05:40:41;;;;;;;7.57;4.03;;;18.90;99.90;;;;;;5031033;28;20041;-77
2022/06/27 05:43:07;;;;;;;7.38;4.05;;;19.00;99.90;;;;;;5019187;28;20025;-77
2022/06/27 05:45:33;;;;;;;6.35;4.22;;;19.10;99.90;;;;;;5008898;28;20044;-77
2022/06/27 05:48:03;;;;;;;5.45;4.85;;;19.10;99.90;;;;;;5029859;28;20045;-76
2022/06/27 05:50:30;;;;;;;7.45;4.53;;;19.10;99.90;;;;;;5021281;28;20516;-77
2022/06/27 05:52:59;;;;;;;8.80;4.43;;;19.10;99.90;;;;;;5013006;28;20070;-76
2022/06/27 05:55:28;;;;;;;6.93;4.53;;;19.10;99.90;;;;;;5041452;28;20029;-75
2022/06/27 05:57:56;;;;;;;8.27;5.10;;;19.10;99.90;;;;;;5033644;28;20021;-76
2022/06/27 06:00:23;;;;;;;6.72;4.60;;;19.20;99.90;;;;;;5023884;28;20457;-77
2022/06/27 06:02:49;;;;;;;6.70;4.93;;;19.30;99.90;;;;;;5029709;28;20033;-76
2022/06/27 06:05:15;;;;;;;7.38;5.00;;;19.30;99.90;;;;;;5026985;28;20112;-73
2022/06/27 06:07:45;;;;;;;8.23;5.13;;;19.30;99.90;;;;;;5015751;28;20112;-75
2022/06/27 06:10:12;;;;;;;6.63;5.35;;;19.30;99.90;;;;;;5021239;28;20508;-78
2022/06/27 06:12:39;;;;;;;6.30;5.38;;;19.30;99.90;;;;;;5017048;28;20033;-76
2022/06/27 06:15:05;;;;;;;6.15;4.95;;;19.40;99.90;;;;;;5020420;28;20037;-77
2022/06/27 06:17:33;;;;;;;7.57;5.45;;;19.40;99.90;;;;;;5021425;28;20025;-76
2022/06/27 06:19:59;;;;;;;7.68;4.10;;;19.40;99.90;;;;;;5027808;28;20397;-76
2022/06/27 06:22:25;;;;;;;5.65;3.67;;;19.50;99.90;;;;;;5018239;28;20041;-75
2022/06/27 06:24:51;;;;;;;6.50;3.80;;;19.70;99.90;;;;;;5019945;28;20037;-74
2022/06/27 06:27:18;;;;;;;7.90;5.35;;;20.00;99.90;;;;;;5028771;28;20393;-76
2022/06/27 06:29:44;;;;;;;7.20;4.90;;;20.10;99.90;;;;;;5020246;28;20034;-76
2022/06/27 06:32:11;;;;;;;6.93;3.80;;;19.90;99.90;;;;;;5019368;28;20037;-75
2022/06/27 06:34:37;;;;;;;5.88;4.18;;;20.20;99.90;;;;;;5022712;28;20026;-73
2022/06/27 06:37:06;;;;;;;5.63;4.30;;;20.40;99.90;;;;;;5020431;28;20025;-75
2022/06/27 06:39:32;;;;;;;6.68;4.20;;;20.60;99.90;;;;;;5023529;28;20042;-77
2022/06/27 06:41:58;;;;;;;5.75;4.65;;;20.60;99.90;;;;;;5020087;28;20021;-75
2022/06/27 06:44:24;;;;;;;6.35;4.45;;;20.60;99.90;;;;;;5027640;28;20033;-75
2022/06/27 06:46:56;;;;;;;6.45;4.30;;;20.60;99.90;;;;;;5015926;28;20033;-75
2022/06/27 06:49:23;;;;;;;6.75;5.03;;;20.60;99.90;;;;;;5018538;28;20029;-77
2022/06/27 06:51:49;;;;;;;6.35;5.07;;;20.70;99.90;;;;;;5015351;28;20081;-76
2022/06/27 06:54:18;;;;;;;8.25;5.50;;;20.70;99.90;;;;;;5013764;28;20069;-76
2022/06/27 06:56:49;;;;;;;7.38;5.00;;;20.70;99.90;;;;;;5020121;28;20482;-76
2022/06/27 06:59:15;;;;;;;;;;;20.80;99.90;;;;;;5029318;28;20034;-75
2022/06/27 07:01:43;;;;;;;5.95;4.82;;;20.90;99.90;;;;;;5020471;28;19919;-76
2022/06/27 07:04:09;;;;;;;20.17;8.13;;;21.00;99.90;;;;;;5019075;28;20486;-75
2022/06/27 07:06:35;;;;;;;9.93;6.10;;;21.10;99.90;;;;;;5014759;28;20033;-75
2022/06/27 07:09:02;;;;;;;7.28;5.22;;;21.10;99.90;;;;;;5027115;28;20057;-75
2022/06/27 07:11:29;;;;;;;7.05;5.13;;;21.10;99.90;;;;;;5015883;28;20506;-76
2022/06/27 07:13:56;;;;;;;8.98;5.65;;;21.20;99.90;;;;;;5019763;28;20037;-75
2022/06/27 07:16:24;;;;;;;6.93;5.00;;;21.20;99.90;;;;;;5020878;28;20108;-75
2022/06/27 07:18:50;;;;;;;9.07;5.22;;;21.10;99.90;;;;;;5013188;28;20506;-76
2022/06/27 07:21:18;;;;;;;7.00;4.93;;;21.00;99.90;;;;;;5020008;28;20068;-75
2022/06/27 07:23:46;;;;;;;8.38;4.97;;;21.00;99.90;;;;;;5012898;28;20053;-75
2022/06/27 07:26:12;;;;;;;10.13;5.18;;;21.10;99.90;;;;;;5018500;28;20279;-76
2022/06/27 07:28:40;;;;;;;7.80;5.15;;;21.00;99.90;;;;;;5025060;28;20049;-76
2022/06/27 07:31:12;;;;;;;12.95;5.03;;;21.00;99.90;;;;;;5019831;28;20099;-76
2022/06/27 07:33:48;;;;;;;8.02;5.18;;;21.00;99.90;;;;;;5015022;28;20032;-76
2022/06/27 07:36:17;;;;;;;9.10;5.75;;;21.00;99.90;;;;;;5020571;28;20026;-74
2022/06/27 07:38:49;;;;;;;8.80;5.65;;;21.00;99.90;;;;;;5019373;28;20277;-76
2022/06/27 07:41:19;;;;;;;11.20;7.18;;;20.90;99.90;;;;;;5005274;28;20390;-77
2022/06/27 07:43:46;;;;;;;7.93;5.65;;;20.50;99.90;;;;;;4997758;28;20065;-77
2022/06/27 07:46:12;;;;;;;10.02;6.85;;;20.30;99.90;;;;;;5007992;28;20030;-75
2022/06/27 07:48:39;;;;;;;10.20;7.78;;;20.20;99.90;;;;;;5019872;28;20177;-75
2022/06/27 07:51:04;;;;;;;11.20;8.00;;;20.00;99.90;;;;;;5031611;28;20025;-76
2022/06/27 07:53:30;;;;;;;10.45;7.28;;;20.00;99.90;;;;;;5024876;28;20420;-75
2022/06/27 07:56:00;;;;;;;10.52;6.85;;;20.00;99.90;;;;;;5020008;28;20478;-76
2022/06/27 07:58:35;;;;;;;17.77;8.30;;;20.00;99.90;;;;;;5025501;28;20022;-76
2022/06/27 08:01:15;;;;;;;11.80;6.57;;;19.80;99.90;;;;;;5019951;28;20109;-75
2022/06/27 08:03:48;;;;;;;19.42;13.13;;;19.80;99.90;;;;;;5019649;28;20026;-76
2022/06/27 08:06:15;;;;;;;21.35;12.82;;;19.80;99.90;;;;;;5018120;28;20026;-75
2022/06/27 08:08:44;;;;;;;9.70;6.78;;;19.70;99.90;;;;;;5030321;28;20040;-76
2022/06/27 08:11:19;;;;;;;13.50;6.93;;;19.70;99.90;;;;;;4998940;28;20109;-77
2022/06/27 08:13:47;;;;;;;12.40;6.43;;;19.70;99.90;;;;;;5021130;28;20028;-76
2022/06/27 08:16:14;;;;;;;10.68;6.32;;;19.60;99.90;;;;;;5022195;28;20026;-76
2022/06/27 08:18:44;;;;;;;14.95;7.07;;;19.60;99.90;;;;;;5040555;28;20105;-76
2022/06/27 08:21:11;;;;;;;9.57;6.87;;;19.60;99.90;;;;;;5023331;28;20026;-77
2022/06/27 08:23:38;;;;;;;10.95;7.15;;;19.60;99.90;;;;;;5023142;28;20028;-76
2022/06/27 08:26:08;;;;;;;9.55;7.40;;;19.60;99.90;;;;;;5025797;28;20033;-77
2022/06/27 08:28:36;;;;;;;10.88;7.28;;;19.50;99.90;;;;;;5022503;28;20025;-76
2022/06/27 08:31:05;;;;;;;10.65;7.50;;;19.50;99.90;;;;;;5024361;28;20029;-75
2022/06/27 08:33:31;;;;;;;11.23;7.18;;;19.50;99.90;;;;;;5025541;28;20025;-77
2022/06/27 08:35:58;;;;;;;11.30;8.00;;;19.50;99.90;;;;;;5020081;28;20026;-76
2022/06/27 08:38:24;;;;;;;13.13;8.02;;;19.50;99.90;;;;;;5043401;28;20079;-76
2022/06/27 08:40:53;;;;;;;13.25;8.55;;;19.60;99.90;;;;;;5013656;28;20017;-77
2022/06/27 08:43:19;;;;;;;11.75;8.45;;;19.50;99.90;;;;;;5034611;28;20034;-76
2022/06/27 08:45:47;;;;;;;11.20;8.20;;;19.40;99.90;;;;;;5024716;28;20036;-76
2022/06/27 08:48:13;;;;;;;12.18;8.32;;;19.40;99.90;;;;;;5003154;28;20137;-76
2022/06/27 08:50:39;;;;;;;22.65;13.70;;;19.40;99.90;;;;;;5021207;28;20506;-76
2022/06/27 08:53:06;;;;;;;11.63;8.32;;;19.50;99.90;;;;;;5027436;28;20076;-77
2022/06/27 08:55:35;;;;;;;18.55;8.95;;;19.60;99.90;;;;;;5027796;28;20025;-75
2022/06/27 08:58:06;;;;;;;12.15;8.43;;;19.60;99.90;;;;;;5024492;28;20569;-76
2022/06/27 09:00:33;;;;;;;12.05;6.68;;;19.60;99.90;;;;;;5029327;28;20041;-77
2022/06/27 09:02:59;;;;;;;12.93;9.48;;;19.70;99.90;;;;;;5008406;28;20038;-76
2022/06/27 09:05:27;;;;;;;13.57;10.25;;;19.70;99.90;;;;;;5020599;28;20132;-76
2022/06/27 09:07:54;;;;;;;12.43;9.73;;;19.70;99.90;;;;;;5019223;28;20026;-77
2022/06/27 09:10:28;;;;;;;58.35;38.40;;;19.70;99.90;;;;;;5030823;28;20101;-76
2022/06/27 09:12:59;;;;;;;108.18;73.40;;;19.70;99.90;;;;;;5022180;28;20407;-77
2022/06/27 09:15:29;;;;;;;57.28;37.60;;;19.80;99.90;;;;;;5022745;28;20034;-77
2022/06/27 09:18:03;;;;;;;38.33;27.65;;;19.80;99.90;;;;;;5015795;28;20033;-76
2022/06/27 09:20:49;;;;;;;20.70;12.93;;;19.70;99.90;;;;;;5027690;28;20410;-76
2022/06/27 09:23:50;;;;;;;17.42;13.07;;;19.80;99.90;;;;;;5035838;28;20088;-75
2022/06/27 09:26:19;;;;;;;14.90;9.55;;;19.80;99.90;;;;;;5010491;28;20032;-76
2022/06/27 09:29:04;;;;;;;15.60;10.27;;;19.70;99.90;;;;;;5023528;28;20036;-76
2022/06/27 09:31:39;;;;;;;13.07;9.63;;;19.70;99.90;;;;;;5020018;28;20030;-77
2022/06/27 09:34:19;;;;;;;14.48;10.65;;;19.70;99.90;;;;;;5027393;28;20390;-76
2022/06/27 09:36:59;;;;;;;13.55;9.85;;;19.70;99.90;;;;;;5005679;28;20343;-77
2022/06/27 09:39:30;;;;;;;14.98;11.25;;;19.70;99.90;;;;;;5014722;28;20513;-76
2022/06/27 09:41:59;;;;;;;16.30;11.40;;;19.60;99.90;;;;;;5002019;28;20030;-77
2022/06/27 09:44:35;;;;;;;17.55;12.88;;;19.70;99.90;;;;;;5028509;28;20061;-76
2022/06/27 09:47:16;;;;;;;22.75;12.10;;;19.70;99.90;;;;;;5026216;28;20034;-78
2022/06/27 09:49:44;;;;;;;19.15;13.15;;;19.90;99.90;;;;;;5025270;28;20029;-76
2022/06/27 09:52:12;;;;;;;17.65;12.45;;;20.00;99.90;;;;;;5021243;28;20026;-76
2022/06/27 09:54:41;;;;;;;21.52;13.43;;;20.10;99.90;;;;;;5030101;28;20045;-76
2022/06/27 09:57:08;;;;;;;16.00;10.98;;;20.00;99.90;;;;;;5025720;28;20030;-77
2022/06/27 09:59:36;;;;;;;20.02;11.77;;;20.10;99.90;;;;;;5024535;28;20468;-76
2022/06/27 10:02:04;;;;;;;14.98;10.88;;;20.40;99.90;;;;;;5022814;28;20045;-77
2022/06/27 10:04:37;;;;;;;19.40;11.60;;;20.30;99.90;;;;;;5006063;28;20061;-79
2022/06/27 10:07:10;;;;;;;15.48;11.48;;;20.20;99.90;;;;;;5026642;28;20057;-77
2022/06/27 10:09:36;;;;;;;17.70;11.50;;;20.20;99.90;;;;;;5025405;28;20080;-78
2022/06/27 10:12:22;;;;;;;16.67;11.75;;;20.20;99.90;;;;;;5025638;28;20022;-77
2022/06/27 10:15:10;;;;;;;13.90;10.63;;;20.20;99.90;;;;;;5025514;28;20029;-77
2022/06/27 10:17:37;;;;;;;15.05;11.32;;;20.40;99.90;;;;;;5027806;28;20460;-77
2022/06/27 10:20:37;;;;;;;16.73;12.88;;;20.30;99.90;;;;;;5036716;28;20021;-78
2022/06/27 10:23:03;;;;;;;15.98;11.52;;;20.30;99.90;;;;;;5004031;28;20038;-77
2022/06/27 10:25:29;;;;;;;15.18;11.63;;;20.30;99.90;;;;;;4982887;28;20045;-77
2022/06/27 10:28:12;;;;;;;15.98;11.50;;;20.20;99.90;;;;;;5011017;28;20034;-77
2022/06/27 10:30:43;;;;;;;16.02;10.88;;;20.30;99.90;;;;;;4981769;28;20499;-75
2022/06/27 10:33:20;;;;;;;18.23;11.85;;;20.30;99.90;;;;;;4980324;28;20030;-76
2022/06/27 10:36:16;;;;;;;19.38;12.18;;;20.30;99.90;;;;;;4996363;28;20573;-74
2022/06/27 10:38:47;;;;;;;17.02;11.10;;;20.40;99.90;;;;;;4966944;28;20054;-73
2022/06/27 10:41:18;;;;;;;20.42;13.00;;;20.50;99.90;;;;;;4969718;28;20043;-74
2022/06/27 10:43:49;;;;;;;18.90;12.45;;;20.50;99.90;;;;;;4952289;28;20175;-74
2022/06/27 10:46:14;;;;;;;16.17;11.77;;;20.70;99.90;;;;;;4954186;28;20062;-77
2022/06/27 10:48:41;;;;;;;20.48;12.27;;;20.70;99.90;;;;;;4973003;28;20471;-77
2022/06/27 10:51:19;;;;;;;14.43;12.13;;;20.70;99.90;;;;;;4966391;28;20083;-76
2022/06/27 10:53:49;;;;;;;18.00;12.65;;;20.70;99.90;;;;;;4963926;28;20169;-75
2022/06/27 10:56:31;;;;;;;16.15;12.40;;;20.70;99.90;;;;;;4970339;28;20486;-75
2022/06/27 10:59:15;;;;;;;19.55;13.77;;;20.60;99.90;;;;;;4960039;28;20035;-76
2022/06/27 11:02:01;;;;;;;19.38;14.65;;;20.50;99.90;;;;;;4979986;28;20038;-76
2022/06/27 11:04:27;;;;;;;21.30;13.75;;;20.60;99.90;;;;;;4977514;28;20034;-77
2022/06/27 11:06:59;;;;;;;19.45;13.30;;;20.40;99.90;;;;;;4981059;28;20034;-76
2022/06/27 11:09:54;;;;;;;17.80;13.43;;;20.30;99.90;;;;;;4976627;28;20240;-76
2022/06/27 11:12:26;;;;;;;18.15;14.55;;;20.30;99.90;;;;;;4975025;28;20062;-76
2022/06/27 11:14:58;;;;;;;18.08;13.52;;;20.30;99.90;;;;;;4987084;28;20453;-77
2022/06/27 11:17:35;;;;;;;19.17;13.10;;;20.30;99.90;;;;;;5017436;28;20065;-76
2022/06/27 11:20:21;;;;;;;21.35;13.63;;;20.20;99.90;;;;;;5006335;28;20054;-75
2022/06/27 11:22:53;;;;;;;18.63;14.20;;;20.10;99.90;;;;;;5028101;28;20018;-76
2022/06/27 11:25:20;;;;;;;19.33;14.45;;;20.10;99.90;;;;;;5028016;28;20559;-77
2022/06/27 11:33:39;;;;;;;20.02;14.48;;;20.20;99.90;;;;;;5032558;28;20055;-75
2022/06/27 11:36:05;;;;;;;25.20;15.20;;;20.20;99.90;;;;;;5017028;28;20038;-75
2022/06/27 11:38:44;;;;;;;18.63;12.52;;;20.10;99.90;;;;;;5027326;28;20022;-77
2022/06/27 11:41:31;;;;;;;23.38;14.05;;;20.10;99.90;;;;;;5024939;28;20030;-76
2022/06/27 11:44:00;;;;;;;22.60;15.63;;;20.00;99.90;;;;;;5017493;28;20498;-76
2022/06/27 11:46:27;;;;;;;19.70;14.85;;;19.90;99.90;;;;;;5024324;28;20029;-76
2022/06/27 11:48:59;;;;;;;21.55;14.05;;;19.90;99.90;;;;;;5015533;28;20033;-77
2022/06/27 11:51:28;;;;;;;17.10;12.80;;;19.80;99.90;;;;;;5034534;28;20030;-75
2022/06/27 11:53:55;;;;;;;16.63;12.77;;;19.80;99.90;;;;;;5025531;28;20120;-75
2022/06/27 11:56:25;;;;;;;16.15;12.75;;;19.80;99.90;;;;;;5031627;28;20414;-77
2022/06/27 11:58:56;;;;;;;17.45;12.73;;;19.80;99.90;;;;;;5033039;28;20064;-76
2022/06/27 12:01:22;;;;;;;;;;;19.80;99.90;;;;;;5031355;28;20029;-76
2022/06/27 12:04:06;;;;;;;14.43;12.13;;;19.90;99.90;;;;;;5036173;28;20396;-76
2022/06/27 12:07:04;;;;;;;16.15;12.52;;;20.20;99.90;;;;;;5020079;28;20124;-75
2022/06/27 12:09:31;;;;;;;15.48;12.30;;;20.20;99.90;;;;;;5023379;28;20037;-75
2022/06/27 12:12:00;;;;;;;14.65;9.90;;;20.20;99.90;;;;;;5038153;28;20061;-76
2022/06/27 12:14:26;;;;;;;16.35;12.00;;;20.30;99.90;;;;;;5035681;28;20111;-76
2022/06/27 12:16:57;;;;;;;17.77;11.60;;;20.40;99.90;;;;;;5034708;28;20493;-76
2022/06/27 12:19:27;;;;;;;;;;;20.50;99.90;;;;;;5035434;28;20473;-76
2022/06/27 12:21:53;;;;;;;18.80;12.82;;;20.60;99.90;;;;;;5036271;28;19905;-76
2022/06/27 12:24:19;;;;;;;14.38;11.70;;;20.60;99.90;;;;;;5033873;28;20032;-76
2022/06/27 12:26:45;;;;;;;17.02;13.02;;;20.60;99.90;;;;;;5035947;28;20030;-76
2022/06/27 12:29:11;;;;;;;18.48;12.88;;;20.50;99.90;;;;;;5036774;28;20079;-76
2022/06/27 12:31:40;;;;;;;17.45;13.50;;;20.50;99.90;;;;;;5033104;28;20034;-75
2022/06/27 12:34:06;;;;;;;19.88;14.30;;;20.40;99.90;;;;;;5035912;28;20059;-76
2022/06/27 12:36:33;;;;;;;16.15;13.27;;;20.30;99.90;;;;;;5035916;28;20033;-76
2022/06/27 12:39:00;;;;;;;20.30;16.25;;;20.10;99.90;;;;;;5035842;28;20032;-77
2022/06/27 12:41:27;;;;;;;19.70;15.85;;;20.20;99.90;;;;;;5037438;28;20033;-75
2022/06/27 12:43:53;;;;;;;18.90;15.52;;;20.20;99.90;;;;;;5035456;28;20044;-75
2022/06/27 12:46:19;;;;;;;20.88;16.27;;;20.30;99.90;;;;;;5035637;28;20408;-75
2022/06/27 12:48:47;;;;;;;19.25;15.27;;;20.30;99.90;;;;;;5035710;28;20070;-75
2022/06/27 12:51:14;;;;;;;488.15;367.63;;;20.40;99.90;;;;;;5038250;28;20078;-74
2022/06/27 12:53:40;;;;;;;24.48;18.85;;;20.50;99.90;;;;;;5034756;28;20026;-74
2022/06/27 12:56:06;;;;;;;59.53;44.88;;;20.50;99.90;;;;;;5035065;28;20022;-75